sensor_id;sensor_type;location;lat;lon;timestamp;P1;durP1;ratioP1;P2;durP2;ratioP2
4738;SDS011;2383;48.632;10.156;2023-07-29T00:01:08;3.58;;;2.00;;
4738;SDS011;2383;48.632;10.156;2023-07-29T00:05:11;2.72;;;1.55;;
4738;SDS011;2383;48.632;10.156;2023-07-29T00:09:12;4.07;;;1.70;;
4738;SDS011;2383;48.632;10.156;2023-07-29T00:13:15;4.32;;;1.63;;
4738;SDS011;2383;48.632;10.156;2023-07-29T00:17:17;4.47;;;1.80;;
4738;SDS011;2383;48.632;10.156;2023-07-29T00:21:19;7.50;;;2.38;;
4738;SDS011;2383;48.632;10.156;2023-07-29T00:25:21;3.92;;;1.73;;
4738;SDS011;2383;48.632;10.156;2023-07-29T00:29:23;2.50;;;1.52;;
4738;SDS011;2383;48.632;10.156;2023-07-29T00:33:25;4.50;;;2.25;;
4738;SDS011;2383;48.632;10.156;2023-07-29T00:37:27;6.00;;;2.03;;
4738;SDS011;2383;48.632;10.156;2023-07-29T00:41:31;5.45;;;1.90;;
4738;SDS011;2383;48.632;10.156;2023-07-29T00:45:33;5.03;;;1.85;;
4738;SDS011;2383;48.632;10.156;2023-07-29T00:49:36;5.82;;;1.95;;
4738;SDS011;2383;48.632;10.156;2023-07-29T00:53:38;2.35;;;1.73;;
4738;SDS011;2383;48.632;10.156;2023-07-29T00:57:41;3.67;;;1.60;;
4738;SDS011;2383;48.632;10.156;2023-07-29T01:01:43;6.35;;;1.98;;
4738;SDS011;2383;48.632;10.156;2023-07-29T01:05:50;2.38;;;2.03;;
4738;SDS011;2383;48.632;10.156;2023-07-29T01:10:19;14.70;;;2.30;;
4738;SDS011;2383;48.632;10.156;2023-07-29T01:14:40;8.90;;;2.45;;
4738;SDS011;2383;48.632;10.156;2023-07-29T01:18:50;10.02;;;2.47;;
4738;SDS011;2383;48.632;10.156;2023-07-29T01:22:56;3.15;;;1.98;;
4738;SDS011;2383;48.632;10.156;2023-07-29T01:26:58;4.35;;;2.28;;
4738;SDS011;2383;48.632;10.156;2023-07-29T01:31:10;6.10;;;2.10;;
4738;SDS011;2383;48.632;10.156;2023-07-29T01:39:30;4.97;;;1.95;;
4738;SDS011;2383;48.632;10.156;2023-07-29T01:43:36;6.43;;;2.00;;
4738;SDS011;2383;48.632;10.156;2023-07-29T01:47:45;6.43;;;1.92;;
4738;SDS011;2383;48.632;10.156;2023-07-29T01:51:49;4.47;;;1.90;;
4738;SDS011;2383;48.632;10.156;2023-07-29T01:55:51;6.47;;;1.83;;
4738;SDS011;2383;48.632;10.156;2023-07-29T01:59:53;6.07;;;1.95;;
4738;SDS011;2383;48.632;10.156;2023-07-29T02:03:55;6.10;;;2.05;;
4738;SDS011;2383;48.632;10.156;2023-07-29T02:07:58;2.67;;;1.80;;
4738;SDS011;2383;48.632;10.156;2023-07-29T02:12:00;4.90;;;2.10;;
4738;SDS011;2383;48.632;10.156;2023-07-29T02:16:11;4.32;;;2.20;;
4738;SDS011;2383;48.632;10.156;2023-07-29T02:20:13;2.20;;;1.73;;
4738;SDS011;2383;48.632;10.156;2023-07-29T02:24:15;9.23;;;2.28;;
4738;SDS011;2383;48.632;10.156;2023-07-29T02:28:17;7.38;;;2.47;;
4738;SDS011;2383;48.632;10.156;2023-07-29T02:32:19;6.55;;;2.20;;
4738;SDS011;2383;48.632;10.156;2023-07-29T02:36:22;6.30;;;2.33;;
4738;SDS011;2383;48.632;10.156;2023-07-29T02:40:24;5.07;;;2.10;;
4738;SDS011;2383;48.632;10.156;2023-07-29T02:44:28;4.07;;;2.35;;
4738;SDS011;2383;48.632;10.156;2023-07-29T02:48:30;6.70;;;2.33;;
4738;SDS011;2383;48.632;10.156;2023-07-29T02:52:32;2.50;;;2.25;;
4738;SDS011;2383;48.632;10.156;2023-07-29T02:56:34;5.28;;;2.38;;
4738;SDS011;2383;48.632;10.156;2023-07-29T03:00:36;4.70;;;2.70;;
4738;SDS011;2383;48.632;10.156;2023-07-29T03:04:38;5.90;;;2.33;;
4738;SDS011;2383;48.632;10.156;2023-07-29T03:08:40;6.38;;;2.10;;
4738;SDS011;2383;48.632;10.156;2023-07-29T03:12:42;5.03;;;2.40;;
4738;SDS011;2383;48.632;10.156;2023-07-29T03:16:44;7.15;;;2.30;;
4738;SDS011;2383;48.632;10.156;2023-07-29T03:20:48;8.57;;;2.40;;
4738;SDS011;2383;48.632;10.156;2023-07-29T03:24:50;6.45;;;2.35;;
4738;SDS011;2383;48.632;10.156;2023-07-29T03:28:52;8.05;;;2.10;;
4738;SDS011;2383;48.632;10.156;2023-07-29T03:32:54;3.83;;;2.25;;
4738;SDS011;2383;48.632;10.156;2023-07-29T03:36:56;8.07;;;2.42;;
4738;SDS011;2383;48.632;10.156;2023-07-29T03:40:58;5.30;;;2.67;;
4738;SDS011;2383;48.632;10.156;2023-07-29T03:45:00;4.20;;;2.15;;
4738;SDS011;2383;48.632;10.156;2023-07-29T03:49:03;5.93;;;3.13;;
4738;SDS011;2383;48.632;10.156;2023-07-29T03:53:05;6.50;;;2.75;;
4738;SDS011;2383;48.632;10.156;2023-07-29T03:57:07;6.90;;;3.33;;
4738;SDS011;2383;48.632;10.156;2023-07-29T04:01:09;8.95;;;4.57;;
4738;SDS011;2383;48.632;10.156;2023-07-29T04:05:11;19.23;;;4.75;;
4738;SDS011;2383;48.632;10.156;2023-07-29T04:09:13;21.13;;;6.28;;
4738;SDS011;2383;48.632;10.156;2023-07-29T04:13:15;12.77;;;6.40;;
4738;SDS011;2383;48.632;10.156;2023-07-29T04:17:17;11.18;;;5.45;;
4738;SDS011;2383;48.632;10.156;2023-07-29T04:21:20;18.05;;;6.40;;
4738;SDS011;2383;48.632;10.156;2023-07-29T04:25:22;12.75;;;5.65;;
4738;SDS011;2383;48.632;10.156;2023-07-29T04:29:24;12.57;;;6.88;;
4738;SDS011;2383;48.632;10.156;2023-07-29T04:33:26;17.17;;;7.63;;
4738;SDS011;2383;48.632;10.156;2023-07-29T04:37:28;17.33;;;7.60;;
4738;SDS011;2383;48.632;10.156;2023-07-29T04:41:30;13.00;;;7.28;;
4738;SDS011;2383;48.632;10.156;2023-07-29T04:45:32;14.00;;;7.95;;
4738;SDS011;2383;48.632;10.156;2023-07-29T04:49:34;16.48;;;7.93;;
4738;SDS011;2383;48.632;10.156;2023-07-29T04:53:36;14.48;;;7.82;;
4738;SDS011;2383;48.632;10.156;2023-07-29T04:57:39;13.07;;;8.27;;
4738;SDS011;2383;48.632;10.156;2023-07-29T05:01:43;10.93;;;8.30;;
4738;SDS011;2383;48.632;10.156;2023-07-29T05:05:45;11.32;;;7.80;;
4738;SDS011;2383;48.632;10.156;2023-07-29T05:09:47;13.65;;;7.78;;
4738;SDS011;2383;48.632;10.156;2023-07-29T05:13:50;13.48;;;8.07;;
4738;SDS011;2383;48.632;10.156;2023-07-29T05:17:52;10.68;;;7.28;;
4738;SDS011;2383;48.632;10.156;2023-07-29T05:21:54;13.43;;;8.38;;
4738;SDS011;2383;48.632;10.156;2023-07-29T05:25:56;10.43;;;8.73;;
4738;SDS011;2383;48.632;10.156;2023-07-29T05:29:58;11.98;;;8.68;;
4738;SDS011;2383;48.632;10.156;2023-07-29T05:34:00;9.98;;;8.52;;
4738;SDS011;2383;48.632;10.156;2023-07-29T05:38:03;10.13;;;8.77;;
4738;SDS011;2383;48.632;10.156;2023-07-29T05:42:07;9.90;;;8.23;;
4738;SDS011;2383;48.632;10.156;2023-07-29T05:46:09;10.05;;;8.38;;
4738;SDS011;2383;48.632;10.156;2023-07-29T05:50:12;9.95;;;8.95;;
4738;SDS011;2383;48.632;10.156;2023-07-29T05:54:14;10.65;;;8.60;;
4738;SDS011;2383;48.632;10.156;2023-07-29T05:58:16;9.40;;;8.40;;
4738;SDS011;2383;48.632;10.156;2023-07-29T06:02:18;10.30;;;8.52;;
4738;SDS011;2383;48.632;10.156;2023-07-29T06:06:20;11.20;;;8.23;;
4738;SDS011;2383;48.632;10.156;2023-07-29T06:10:22;9.57;;;8.43;;
4738;SDS011;2383;48.632;10.156;2023-07-29T06:14:24;8.90;;;7.80;;
4738;SDS011;2383;48.632;10.156;2023-07-29T06:18:27;10.82;;;9.00;;
4738;SDS011;2383;48.632;10.156;2023-07-29T06:22:29;11.10;;;8.48;;
4738;SDS011;2383;48.632;10.156;2023-07-29T06:26:31;47.25;;;10.02;;
4738;SDS011;2383;48.632;10.156;2023-07-29T06:30:33;20.80;;;6.13;;
4738;SDS011;2383;48.632;10.156;2023-07-29T06:34:35;6.80;;;3.75;;
4738;SDS011;2383;48.632;10.156;2023-07-29T06:38:37;9.90;;;5.05;;
4738;SDS011;2383;48.632;10.156;2023-07-29T06:42:39;5.45;;;3.90;;
4738;SDS011;2383;48.632;10.156;2023-07-29T06:46:41;5.82;;;4.45;;
4738;SDS011;2383;48.632;10.156;2023-07-29T06:50:43;6.88;;;4.18;;
4738;SDS011;2383;48.632;10.156;2023-07-29T06:54:45;5.65;;;4.60;;
4738;SDS011;2383;48.632;10.156;2023-07-29T06:58:47;5.50;;;4.57;;
4738;SDS011;2383;48.632;10.156;2023-07-29T07:02:49;7.32;;;5.35;;
4738;SDS011;2383;48.632;10.156;2023-07-29T07:06:51;9.90;;;6.93;;
4738;SDS011;2383;48.632;10.156;2023-07-29T07:10:53;11.23;;;7.30;;
4738;SDS011;2383;48.632;10.156;2023-07-29T07:14:56;11.15;;;7.75;;
4738;SDS011;2383;48.632;10.156;2023-07-29T07:18:58;11.73;;;7.28;;
4738;SDS011;2383;48.632;10.156;2023-07-29T07:22:59;8.52;;;7.35;;
4738;SDS011;2383;48.632;10.156;2023-07-29T07:27:01;9.77;;;7.38;;
4738;SDS011;2383;48.632;10.156;2023-07-29T07:31:04;10.13;;;7.28;;
4738;SDS011;2383;48.632;10.156;2023-07-29T07:35:06;7.80;;;7.00;;
4738;SDS011;2383;48.632;10.156;2023-07-29T07:39:08;7.78;;;6.75;;
4738;SDS011;2383;48.632;10.156;2023-07-29T07:43:10;11.18;;;6.80;;
4738;SDS011;2383;48.632;10.156;2023-07-29T07:47:12;9.25;;;6.50;;
4738;SDS011;2383;48.632;10.156;2023-07-29T07:51:14;9.05;;;6.40;;
4738;SDS011;2383;48.632;10.156;2023-07-29T07:55:16;8.35;;;6.40;;
4738;SDS011;2383;48.632;10.156;2023-07-29T07:59:18;5.88;;;5.28;;
4738;SDS011;2383;48.632;10.156;2023-07-29T08:03:20;7.72;;;5.43;;
4738;SDS011;2383;48.632;10.156;2023-07-29T08:07:22;5.90;;;4.90;;
4738;SDS011;2383;48.632;10.156;2023-07-29T08:11:24;6.50;;;4.90;;
4738;SDS011;2383;48.632;10.156;2023-07-29T08:15:27;14.52;;;5.80;;
4738;SDS011;2383;48.632;10.156;2023-07-29T08:19:29;2.78;;;2.38;;
4738;SDS011;2383;48.632;10.156;2023-07-29T08:23:31;2.25;;;1.92;;
4738;SDS011;2383;48.632;10.156;2023-07-29T08:27:35;1.77;;;1.67;;
4738;SDS011;2383;48.632;10.156;2023-07-29T08:31:37;2.20;;;2.00;;
4738;SDS011;2383;48.632;10.156;2023-07-29T08:35:39;2.47;;;1.77;;
4738;SDS011;2383;48.632;10.156;2023-07-29T08:39:41;2.38;;;2.15;;
4738;SDS011;2383;48.632;10.156;2023-07-29T08:43:45;2.63;;;1.70;;
4738;SDS011;2383;48.632;10.156;2023-07-29T08:47:54;2.05;;;1.73;;
4738;SDS011;2383;48.632;10.156;2023-07-29T08:52:00;2.13;;;1.85;;
4738;SDS011;2383;48.632;10.156;2023-07-29T08:56:03;3.45;;;1.80;;
4738;SDS011;2383;48.632;10.156;2023-07-29T09:00:06;4.50;;;1.60;;
4738;SDS011;2383;48.632;10.156;2023-07-29T09:04:09;4.75;;;1.77;;
4738;SDS011;2383;48.632;10.156;2023-07-29T09:08:11;1.52;;;1.42;;
4738;SDS011;2383;48.632;10.156;2023-07-29T09:12:14;2.17;;;1.65;;
4738;SDS011;2383;48.632;10.156;2023-07-29T09:16:16;4.90;;;1.90;;
4738;SDS011;2383;48.632;10.156;2023-07-29T09:20:23;7.72;;;1.70;;
4738;SDS011;2383;48.632;10.156;2023-07-29T09:24:26;2.03;;;1.80;;
4738;SDS011;2383;48.632;10.156;2023-07-29T09:28:35;4.10;;;2.00;;
4738;SDS011;2383;48.632;10.156;2023-07-29T09:32:39;7.85;;;2.60;;
4738;SDS011;2383;48.632;10.156;2023-07-29T09:36:41;2.38;;;1.92;;
4738;SDS011;2383;48.632;10.156;2023-07-29T09:40:43;2.22;;;1.60;;
4738;SDS011;2383;48.632;10.156;2023-07-29T09:44:48;2.85;;;1.98;;
4738;SDS011;2383;48.632;10.156;2023-07-29T09:48:52;1.70;;;1.60;;
4738;SDS011;2383;48.632;10.156;2023-07-29T09:52:56;1.90;;;1.80;;
4738;SDS011;2383;48.632;10.156;2023-07-29T09:57:01;1.70;;;1.58;;
4738;SDS011;2383;48.632;10.156;2023-07-29T10:01:07;3.63;;;2.05;;
4738;SDS011;2383;48.632;10.156;2023-07-29T10:05:10;2.00;;;1.80;;
4738;SDS011;2383;48.632;10.156;2023-07-29T10:09:12;2.63;;;1.90;;
4738;SDS011;2383;48.632;10.156;2023-07-29T10:13:14;2.20;;;2.00;;
4738;SDS011;2383;48.632;10.156;2023-07-29T10:17:17;2.30;;;2.10;;
4738;SDS011;2383;48.632;10.156;2023-07-29T10:21:21;3.88;;;2.28;;
4738;SDS011;2383;48.632;10.156;2023-07-29T10:25:24;2.55;;;2.35;;
4738;SDS011;2383;48.632;10.156;2023-07-29T10:29:32;2.35;;;2.15;;
4738;SDS011;2383;48.632;10.156;2023-07-29T10:33:40;3.10;;;2.58;;
4738;SDS011;2383;48.632;10.156;2023-07-29T10:37:42;3.88;;;2.70;;
4738;SDS011;2383;48.632;10.156;2023-07-29T10:45:56;3.63;;;2.35;;
4738;SDS011;2383;48.632;10.156;2023-07-29T10:50:19;2.58;;;2.30;;
4738;SDS011;2383;48.632;10.156;2023-07-29T10:54:21;2.42;;;2.22;;
4738;SDS011;2383;48.632;10.156;2023-07-29T10:58:24;2.42;;;2.13;;
4738;SDS011;2383;48.632;10.156;2023-07-29T11:02:30;2.38;;;2.17;;
4738;SDS011;2383;48.632;10.156;2023-07-29T11:06:37;2.45;;;2.22;;
4738;SDS011;2383;48.632;10.156;2023-07-29T11:11:06;2.58;;;2.15;;
4738;SDS011;2383;48.632;10.156;2023-07-29T11:19:13;2.70;;;2.50;;
4738;SDS011;2383;48.632;10.156;2023-07-29T11:23:20;2.70;;;2.50;;
4738;SDS011;2383;48.632;10.156;2023-07-29T11:27:28;2.47;;;2.28;;
4738;SDS011;2383;48.632;10.156;2023-07-29T11:31:39;2.88;;;2.58;;
4738;SDS011;2383;48.632;10.156;2023-07-29T11:35:41;3.88;;;2.75;;
4738;SDS011;2383;48.632;10.156;2023-07-29T11:39:44;3.33;;;2.67;;
4738;SDS011;2383;48.632;10.156;2023-07-29T11:43:46;2.20;;;2.00;;
4738;SDS011;2383;48.632;10.156;2023-07-29T11:47:48;3.13;;;2.45;;
4738;SDS011;2383;48.632;10.156;2023-07-29T11:51:50;2.85;;;2.45;;
4738;SDS011;2383;48.632;10.156;2023-07-29T11:55:52;3.25;;;2.50;;
4738;SDS011;2383;48.632;10.156;2023-07-29T11:59:55;2.92;;;2.20;;
4738;SDS011;2383;48.632;10.156;2023-07-29T12:03:57;2.35;;;2.15;;
4738;SDS011;2383;48.632;10.156;2023-07-29T12:08:00;3.70;;;2.10;;
4738;SDS011;2383;48.632;10.156;2023-07-29T12:12:03;2.40;;;2.20;;
4738;SDS011;2383;48.632;10.156;2023-07-29T12:16:06;3.35;;;1.60;;
4738;SDS011;2383;48.632;10.156;2023-07-29T12:20:09;2.58;;;1.65;;
4738;SDS011;2383;48.632;10.156;2023-07-29T12:24:12;1.88;;;1.52;;
4738;SDS011;2383;48.632;10.156;2023-07-29T12:28:15;1.45;;;1.35;;
4738;SDS011;2383;48.632;10.156;2023-07-29T12:32:17;1.98;;;1.60;;
4738;SDS011;2383;48.632;10.156;2023-07-29T12:36:19;2.28;;;1.52;;
4738;SDS011;2383;48.632;10.156;2023-07-29T12:44:24;2.72;;;2.03;;
4738;SDS011;2383;48.632;10.156;2023-07-29T12:48:29;2.78;;;1.75;;
4738;SDS011;2383;48.632;10.156;2023-07-29T12:52:31;2.47;;;2.00;;
4738;SDS011;2383;48.632;10.156;2023-07-29T12:56:33;2.83;;;1.95;;
4738;SDS011;2383;48.632;10.156;2023-07-29T13:00:35;2.38;;;2.10;;
4738;SDS011;2383;48.632;10.156;2023-07-29T13:04:37;2.00;;;1.80;;
4738;SDS011;2383;48.632;10.156;2023-07-29T13:08:39;2.70;;;2.00;;
4738;SDS011;2383;48.632;10.156;2023-07-29T13:12:41;2.85;;;2.00;;
4738;SDS011;2383;48.632;10.156;2023-07-29T13:16:43;2.63;;;2.03;;
4738;SDS011;2383;48.632;10.156;2023-07-29T13:20:45;3.95;;;1.90;;
4738;SDS011;2383;48.632;10.156;2023-07-29T13:24:47;2.78;;;1.77;;
4738;SDS011;2383;48.632;10.156;2023-07-29T13:28:49;3.65;;;1.90;;
4738;SDS011;2383;48.632;10.156;2023-07-29T13:32:52;2.00;;;1.80;;
4738;SDS011;2383;48.632;10.156;2023-07-29T13:36:54;2.45;;;2.25;;
4738;SDS011;2383;48.632;10.156;2023-07-29T13:40:56;2.80;;;2.10;;
4738;SDS011;2383;48.632;10.156;2023-07-29T13:44:58;2.50;;;1.85;;
4738;SDS011;2383;48.632;10.156;2023-07-29T13:49:00;2.42;;;2.00;;
4738;SDS011;2383;48.632;10.156;2023-07-29T13:53:02;2.60;;;1.80;;
4738;SDS011;2383;48.632;10.156;2023-07-29T13:57:04;2.75;;;2.42;;
4738;SDS011;2383;48.632;10.156;2023-07-29T14:01:08;2.30;;;2.05;;
4738;SDS011;2383;48.632;10.156;2023-07-29T14:05:10;3.03;;;1.90;;
4738;SDS011;2383;48.632;10.156;2023-07-29T14:09:13;3.92;;;2.03;;
4738;SDS011;2383;48.632;10.156;2023-07-29T14:13:15;4.53;;;2.00;;
4738;SDS011;2383;48.632;10.156;2023-07-29T14:17:17;1.75;;;1.63;;
4738;SDS011;2383;48.632;10.156;2023-07-29T14:21:19;3.90;;;2.15;;
4738;SDS011;2383;48.632;10.156;2023-07-29T14:25:21;2.22;;;1.88;;
4738;SDS011;2383;48.632;10.156;2023-07-29T14:29:23;3.22;;;2.67;;
4738;SDS011;2383;48.632;10.156;2023-07-29T14:33:25;4.18;;;2.38;;
4738;SDS011;2383;48.632;10.156;2023-07-29T14:37:28;2.75;;;2.00;;
4738;SDS011;2383;48.632;10.156;2023-07-29T14:41:30;5.55;;;2.50;;
4738;SDS011;2383;48.632;10.156;2023-07-29T14:45:32;2.55;;;2.35;;
4738;SDS011;2383;48.632;10.156;2023-07-29T14:49:34;3.25;;;2.25;;
4738;SDS011;2383;48.632;10.156;2023-07-29T14:53:36;4.50;;;2.67;;
4738;SDS011;2383;48.632;10.156;2023-07-29T14:57:38;7.70;;;3.60;;
4738;SDS011;2383;48.632;10.156;2023-07-29T15:01:42;3.65;;;2.95;;
4738;SDS011;2383;48.632;10.156;2023-07-29T15:05:44;4.47;;;3.55;;
4738;SDS011;2383;48.632;10.156;2023-07-29T15:09:46;3.80;;;3.15;;
4738;SDS011;2383;48.632;10.156;2023-07-29T15:13:49;3.75;;;2.67;;
4738;SDS011;2383;48.632;10.156;2023-07-29T15:17:51;2.63;;;2.42;;
4738;SDS011;2383;48.632;10.156;2023-07-29T15:21:53;4.50;;;2.95;;
4738;SDS011;2383;48.632;10.156;2023-07-29T15:25:55;3.92;;;2.45;;
4738;SDS011;2383;48.632;10.156;2023-07-29T15:29:57;3.30;;;2.45;;
4738;SDS011;2383;48.632;10.156;2023-07-29T15:33:59;5.85;;;2.10;;
4738;SDS011;2383;48.632;10.156;2023-07-29T15:38:01;4.70;;;2.35;;
4738;SDS011;2383;48.632;10.156;2023-07-29T15:42:03;2.35;;;2.15;;
4738;SDS011;2383;48.632;10.156;2023-07-29T15:46:05;2.08;;;1.98;;
4738;SDS011;2383;48.632;10.156;2023-07-29T15:50:07;2.30;;;1.98;;
4738;SDS011;2383;48.632;10.156;2023-07-29T15:54:09;2.75;;;2.13;;
4738;SDS011;2383;48.632;10.156;2023-07-29T15:58:12;2.90;;;2.05;;
4738;SDS011;2383;48.632;10.156;2023-07-29T16:02:14;2.22;;;1.98;;
4738;SDS011;2383;48.632;10.156;2023-07-29T16:06:16;2.28;;;2.08;;
4738;SDS011;2383;48.632;10.156;2023-07-29T16:10:18;2.20;;;2.00;;
4738;SDS011;2383;48.632;10.156;2023-07-29T16:14:20;2.50;;;1.95;;
4738;SDS011;2383;48.632;10.156;2023-07-29T16:18:24;2.40;;;2.20;;
4738;SDS011;2383;48.632;10.156;2023-07-29T16:22:26;4.53;;;2.00;;
4738;SDS011;2383;48.632;10.156;2023-07-29T16:26:28;2.00;;;1.90;;
4738;SDS011;2383;48.632;10.156;2023-07-29T16:30:30;1.98;;;1.83;;
4738;SDS011;2383;48.632;10.156;2023-07-29T16:34:32;2.88;;;2.08;;
4738;SDS011;2383;48.632;10.156;2023-07-29T16:38:34;2.10;;;1.80;;
4738;SDS011;2383;48.632;10.156;2023-07-29T16:42:36;2.85;;;1.70;;
4738;SDS011;2383;48.632;10.156;2023-07-29T16:46:38;3.38;;;1.85;;
4738;SDS011;2383;48.632;10.156;2023-07-29T16:50:40;1.95;;;1.85;;
4738;SDS011;2383;48.632;10.156;2023-07-29T16:54:42;2.75;;;1.83;;
4738;SDS011;2383;48.632;10.156;2023-07-29T16:58:44;2.13;;;1.85;;
4738;SDS011;2383;48.632;10.156;2023-07-29T17:02:46;1.75;;;1.65;;
4738;SDS011;2383;48.632;10.156;2023-07-29T17:06:48;2.38;;;1.90;;
4738;SDS011;2383;48.632;10.156;2023-07-29T17:10:51;2.28;;;2.00;;
4738;SDS011;2383;48.632;10.156;2023-07-29T17:14:53;2.03;;;1.83;;
4738;SDS011;2383;48.632;10.156;2023-07-29T17:18:55;2.00;;;1.80;;
4738;SDS011;2383;48.632;10.156;2023-07-29T17:22:57;2.00;;;1.88;;
4738;SDS011;2383;48.632;10.156;2023-07-29T17:26:59;2.17;;;1.98;;
4738;SDS011;2383;48.632;10.156;2023-07-29T17:31:01;1.90;;;1.80;;
4738;SDS011;2383;48.632;10.156;2023-07-29T17:35:04;2.35;;;2.15;;
4738;SDS011;2383;48.632;10.156;2023-07-29T17:39:06;3.13;;;2.20;;
4738;SDS011;2383;48.632;10.156;2023-07-29T17:43:08;2.28;;;2.08;;
4738;SDS011;2383;48.632;10.156;2023-07-29T17:47:10;2.38;;;2.05;;
4738;SDS011;2383;48.632;10.156;2023-07-29T17:51:12;4.30;;;2.47;;
4738;SDS011;2383;48.632;10.156;2023-07-29T17:55:14;2.13;;;1.70;;
4738;SDS011;2383;48.632;10.156;2023-07-29T17:59:16;1.80;;;1.70;;
4738;SDS011;2383;48.632;10.156;2023-07-29T18:03:18;7.38;;;1.98;;
4738;SDS011;2383;48.632;10.156;2023-07-29T18:07:20;2.67;;;2.00;;
4738;SDS011;2383;48.632;10.156;2023-07-29T18:11:23;2.50;;;2.03;;
4738;SDS011;2383;48.632;10.156;2023-07-29T18:15:25;2.50;;;1.65;;
4738;SDS011;2383;48.632;10.156;2023-07-29T18:19:27;2.92;;;2.10;;
4738;SDS011;2383;48.632;10.156;2023-07-29T18:23:31;2.53;;;2.00;;
4738;SDS011;2383;48.632;10.156;2023-07-29T18:27:33;2.28;;;2.08;;
4738;SDS011;2383;48.632;10.156;2023-07-29T18:31:36;3.63;;;2.20;;
4738;SDS011;2383;48.632;10.156;2023-07-29T18:35:42;3.13;;;2.40;;
4738;SDS011;2383;48.632;10.156;2023-07-29T18:39:44;3.58;;;2.13;;
4738;SDS011;2383;48.632;10.156;2023-07-29T18:43:46;3.75;;;2.30;;
4738;SDS011;2383;48.632;10.156;2023-07-29T18:47:48;3.50;;;2.22;;
4738;SDS011;2383;48.632;10.156;2023-07-29T18:51:53;4.78;;;2.35;;
4738;SDS011;2383;48.632;10.156;2023-07-29T18:55:55;2.63;;;2.13;;
4738;SDS011;2383;48.632;10.156;2023-07-29T18:59:57;2.47;;;2.28;;
4738;SDS011;2383;48.632;10.156;2023-07-29T19:04:01;3.90;;;2.40;;
4738;SDS011;2383;48.632;10.156;2023-07-29T19:08:04;5.15;;;2.35;;
4738;SDS011;2383;48.632;10.156;2023-07-29T19:12:09;2.63;;;2.05;;
4738;SDS011;2383;48.632;10.156;2023-07-29T19:16:11;3.15;;;2.47;;
4738;SDS011;2383;48.632;10.156;2023-07-29T19:20:14;3.40;;;2.53;;
4738;SDS011;2383;48.632;10.156;2023-07-29T19:24:16;3.13;;;2.28;;
4738;SDS011;2383;48.632;10.156;2023-07-29T19:28:18;3.10;;;2.30;;
4738;SDS011;2383;48.632;10.156;2023-07-29T19:32:20;4.15;;;2.45;;
4738;SDS011;2383;48.632;10.156;2023-07-29T19:36:24;3.90;;;2.80;;
4738;SDS011;2383;48.632;10.156;2023-07-29T19:40:26;4.00;;;2.95;;
4738;SDS011;2383;48.632;10.156;2023-07-29T19:44:28;4.57;;;2.85;;
4738;SDS011;2383;48.632;10.156;2023-07-29T19:48:31;5.72;;;2.53;;
4738;SDS011;2383;48.632;10.156;2023-07-29T19:52:33;3.20;;;2.78;;
4738;SDS011;2383;48.632;10.156;2023-07-29T19:56:35;5.13;;;2.90;;
4738;SDS011;2383;48.632;10.156;2023-07-29T20:00:37;3.55;;;2.92;;
4738;SDS011;2383;48.632;10.156;2023-07-29T20:04:39;3.00;;;2.60;;
4738;SDS011;2383;48.632;10.156;2023-07-29T20:08:41;3.13;;;2.53;;
4738;SDS011;2383;48.632;10.156;2023-07-29T20:12:44;4.15;;;3.00;;
4738;SDS011;2383;48.632;10.156;2023-07-29T20:16:46;4.22;;;2.60;;
4738;SDS011;2383;48.632;10.156;2023-07-29T20:20:48;5.97;;;2.92;;
4738;SDS011;2383;48.632;10.156;2023-07-29T20:24:50;5.57;;;3.05;;
4738;SDS011;2383;48.632;10.156;2023-07-29T20:28:52;5.70;;;2.97;;
4738;SDS011;2383;48.632;10.156;2023-07-29T20:32:54;6.65;;;3.47;;
4738;SDS011;2383;48.632;10.156;2023-07-29T20:36:57;4.00;;;3.08;;
4738;SDS011;2383;48.632;10.156;2023-07-29T20:40:59;9.18;;;3.30;;
4738;SDS011;2383;48.632;10.156;2023-07-29T20:45:01;4.55;;;3.13;;
4738;SDS011;2383;48.632;10.156;2023-07-29T20:49:04;5.30;;;3.53;;
4738;SDS011;2383;48.632;10.156;2023-07-29T20:53:06;3.90;;;3.55;;
4738;SDS011;2383;48.632;10.156;2023-07-29T20:57:08;6.32;;;3.90;;
4738;SDS011;2383;48.632;10.156;2023-07-29T21:01:10;5.90;;;3.95;;
4738;SDS011;2383;48.632;10.156;2023-07-29T21:05:12;4.63;;;3.78;;
4738;SDS011;2383;48.632;10.156;2023-07-29T21:09:14;3.95;;;3.50;;
4738;SDS011;2383;48.632;10.156;2023-07-29T21:13:16;4.55;;;4.13;;
4738;SDS011;2383;48.632;10.156;2023-07-29T21:17:19;3.95;;;3.50;;
4738;SDS011;2383;48.632;10.156;2023-07-29T21:21:20;5.80;;;4.15;;
4738;SDS011;2383;48.632;10.156;2023-07-29T21:25:22;4.88;;;4.35;;
4738;SDS011;2383;48.632;10.156;2023-07-29T21:29:24;4.68;;;4.18;;
4738;SDS011;2383;48.632;10.156;2023-07-29T21:33:26;6.50;;;4.18;;
4738;SDS011;2383;48.632;10.156;2023-07-29T21:37:29;4.22;;;3.83;;
4738;SDS011;2383;48.632;10.156;2023-07-29T21:41:37;7.47;;;4.30;;
4738;SDS011;2383;48.632;10.156;2023-07-29T21:45:40;5.65;;;4.20;;
4738;SDS011;2383;48.632;10.156;2023-07-29T21:49:42;5.30;;;4.40;;
4738;SDS011;2383;48.632;10.156;2023-07-29T21:53:44;5.53;;;4.38;;
4738;SDS011;2383;48.632;10.156;2023-07-29T21:57:46;4.85;;;4.13;;
4738;SDS011;2383;48.632;10.156;2023-07-29T22:01:48;7.60;;;4.60;;
4738;SDS011;2383;48.632;10.156;2023-07-29T22:05:50;5.50;;;4.60;;
4738;SDS011;2383;48.632;10.156;2023-07-29T22:09:53;7.40;;;5.82;;
4738;SDS011;2383;48.632;10.156;2023-07-29T22:13:55;5.82;;;4.72;;
4738;SDS011;2383;48.632;10.156;2023-07-29T22:17:57;7.50;;;4.47;;
4738;SDS011;2383;48.632;10.156;2023-07-29T22:21:59;7.82;;;4.63;;
4738;SDS011;2383;48.632;10.156;2023-07-29T22:26:02;7.68;;;5.25;;
4738;SDS011;2383;48.632;10.156;2023-07-29T22:30:05;8.00;;;4.57;;
4738;SDS011;2383;48.632;10.156;2023-07-29T22:34:07;9.30;;;4.72;;
4738;SDS011;2383;48.632;10.156;2023-07-29T22:38:09;6.53;;;5.10;;
4738;SDS011;2383;48.632;10.156;2023-07-29T22:42:11;8.77;;;4.97;;
4738;SDS011;2383;48.632;10.156;2023-07-29T22:46:13;5.82;;;4.85;;
4738;SDS011;2383;48.632;10.156;2023-07-29T22:50:16;8.77;;;5.15;;
4738;SDS011;2383;48.632;10.156;2023-07-29T22:54:18;6.07;;;4.78;;
4738;SDS011;2383;48.632;10.156;2023-07-29T22:58:20;7.32;;;4.53;;
4738;SDS011;2383;48.632;10.156;2023-07-29T23:02:22;8.40;;;4.90;;
4738;SDS011;2383;48.632;10.156;2023-07-29T23:06:24;6.72;;;4.80;;
4738;SDS011;2383;48.632;10.156;2023-07-29T23:10:26;7.72;;;4.70;;
4738;SDS011;2383;48.632;10.156;2023-07-29T23:14:29;6.35;;;4.75;;
4738;SDS011;2383;48.632;10.156;2023-07-29T23:18:31;5.45;;;4.45;;
4738;SDS011;2383;48.632;10.156;2023-07-29T23:22:33;6.35;;;4.60;;
4738;SDS011;2383;48.632;10.156;2023-07-29T23:26:35;6.30;;;4.68;;
4738;SDS011;2383;48.632;10.156;2023-07-29T23:30:37;8.48;;;4.88;;
4738;SDS011;2383;48.632;10.156;2023-07-29T23:34:40;4.60;;;4.10;;
4738;SDS011;2383;48.632;10.156;2023-07-29T23:38:41;4.85;;;3.97;;
4738;SDS011;2383;48.632;10.156;2023-07-29T23:42:43;4.95;;;4.45;;
4738;SDS011;2383;48.632;10.156;2023-07-29T23:46:45;4.78;;;4.28;;
4738;SDS011;2383;48.632;10.156;2023-07-29T23:50:47;5.30;;;4.07;;
4738;SDS011;2383;48.632;10.156;2023-07-29T23:54:49;32.97;;;25.13;;
4738;SDS011;2383;48.632;10.156;2023-07-29T23:58:51;5.53;;;4.63;;
